CST,Max TemperatureF,Mean TemperatureF,Min TemperatureF,Max Dew PointF,MeanDew PointF,Min DewpointF,Max Humidity, Mean Humidity, Min Humidity, Max Sea Level PressureIn, Mean Sea Level PressureIn, Min Sea Level PressureIn, Max VisibilityMiles, Mean VisibilityMiles, Min VisibilityMiles, Max Wind SpeedMPH, Mean Wind SpeedMPH, Max Gust SpeedMPH,PrecipitationIn, CloudCover, Events, WindDirDegrees
2014-2-1,26,20,14,20,16,10,93,83,68,30.33,30.03,29.85,10,8,2,18,11,,0.00,8,Snow,349
2014-2-2,27,14,1,13,7,-1,88,73,43,30.44,30.36,30.29,10,10,10,12,6,,0.00,0,,185
2014-2-3,30,21,12,18,11,7,81,59,40,30.29,30.17,30.02,10,10,10,20,11,,0.00,5,,153
2014-2-4,28,18,7,25,18,2,93,87,69,30.45,30.09,29.98,10,2,0,28,15,36,0.10,8,Fog-Snow,40
2014-2-5,8,3,-2,1,-3,-7,84,73,55,30.76,30.62,30.38,10,8,2,25,18,33,0.00,4,Snow,348
2014-2-6,7,4,1,-2,-5,-8,73,64,55,30.73,30.62,30.45,10,10,9,8,4,,0.00,8,Snow,102
2014-2-7,14,10,5,11,5,-2,88,79,73,30.43,30.26,30.06,10,7,2,16,11,,0.00,8,Snow,169
2014-2-8,26,20,14,23,18,12,96,90,80,30.24,30.07,29.96,6,4,2,15,11,,0.00,8,,182
2014-2-9,24,17,10,20,11,6,92,80,71,30.48,30.30,30.14,10,7,1,17,12,,0.04,7,Snow,31
2014-2-10,12,10,9,6,5,4,88,78,71,30.52,30.45,30.36,10,8,1,13,9,,0.03,8,Snow,60
2014-2-11,21,12,3,15,9,1,92,82,77,30.49,30.33,30.17,10,10,8,21,10,,0.00,4,,180
2014-2-12,36,26,16,27,23,12,89,79,67,30.19,30.09,29.91,10,10,6,29,16,24,0.00,1,,254
2014-2-13,48,36,24,34,28,19,85,73,56,29.92,29.84,29.72,10,10,10,25,12,37,0.00,1,Rain,227
2014-2-14,53,42,32,36,30,26,82,64,38,30.08,29.94,29.66,10,10,10,30,18,37,0.00,2,,343
2014-2-15,60,46,32,33,29,27,82,62,33,30.11,29.96,29.83,10,10,10,26,15,36,0.00,3,,268
2014-2-16,57,42,27,35,30,24,92,68,42,30.11,29.95,29.71,10,10,10,25,11,31,0.00,0,,165
2014-2-17,62,48,35,32,24,15,76,45,16,30.09,29.98,29.76,10,10,10,36,14,50,0.00,0,,272
2014-2-18,72,53,34,28,22,15,67,36,12,30.03,29.83,29.73,10,10,10,24,17,36,0.00,0,,269
2014-2-19,55,42,30,29,25,20,79,52,30,29.99,29.78,29.45,10,10,10,20,9,,0.00,1,,135
2014-2-20,48,39,30,33,28,16,96,74,28,29.98,29.68,29.39,10,6,0,40,22,51,0.05,5,Fog-Rain-Snow,333
2014-2-21,57,41,25,24,19,16,75,48,22,29.96,29.91,29.86,10,10,10,22,12,30,0.00,0,,255
2014-2-22,55,41,27,25,23,21,78,55,28,30.07,29.94,29.87,10,10,10,18,9,28,0.00,0,,52
2014-2-23,32,26,18,23,18,12,85,72,56,30.38,30.28,30.11,10,10,10,18,12,25,0.00,5,,37
2014-2-24,44,32,19,21,16,12,75,60,38,30.37,30.24,30.05,10,10,10,17,10,25,0.00,4,,104
2014-2-25,24,17,10,17,9,4,88,75,56,30.60,30.44,30.29,10,7,1,18,15,25,0.03,6,Snow,360
2014-2-26,39,17,-5,24,9,-10,100,77,47,30.55,30.32,30.08,10,8,1,21,10,18,0.02,1,Snow,286
2014-2-27,44,29,14,18,15,10,84,59,30,30.11,29.95,29.73,10,10,10,23,9,29,0.00,0,,114
2014-2-28,54,39,23,28,21,16,78,59,34,30.09,29.82,29.62,10,10,10,23,13,31,0.00,1,,38